Terminal Aerodrome Forecast
Issued by NWS Sterling, VA

Home | Current Version | Previous Version | Text Only | Print | Product List | Glossary On
Versions: 1 2 3 4 5 6 7 8 9 10 11 12 13 14 15 16 17 18 19 20 21 22 23 24
000
FTUS41 KLWX 040919 AAA
TAFIAD
TAF AMD
KIAD 040919Z 0409/0512 33004KT P6SM SCT250
     FM041400 05006KT P6SM SCT050
     FM041800 04005KT P6SM BKN050
     FM042200 11007KT P6SM BKN050
     FM050400 05007KT P6SM SCT015 BKN020=

USA.gov is the U.S. government's official web portal to all federal, state and local government web resources and services.